Longview, TX

10:16 PM CST on February 23, 2017 (GMT -0600)
Downtown | | Change Station
Active Advisory: Lake Wind Advisory

Elev 385 ft 32.51 °N, 94.71 °W | Updated 5 seconds ago

Clear
Clear
69.1 °F
Feels Like 69.1 °F
N
5.4
Wind Variable Wind from SW
Gusts 5.4 mph

Today
High -- | Low -- °F
--% Chance of Precip.
Yesterday
High -- | Low -- °F
Precip. -- in
Pressure 29.62 in
Visibility 10.0 miles
Clouds Clear
Dew Point 55 °F
Humidity 60%
Rainfall 0.00 in
Snow Depth Not available.
6:53 AM 6:11 PM
Waning Crescent, 7% visible
METAR KGGG 240353Z AUTO 17010KT 10SM CLR 20/13 A2963 RMK AO2 SLP028 T02000133
Pressure 29.62 in
Visibility 10.0 miles
Clouds Clear
Dew Point 55 °F
Humidity 60%
Rainfall 0.00 in
Snow Depth Not available.
6:53 AM 6:11 PM
Waning Crescent, 7% visible
METAR KGGG 240353Z AUTO 17010KT 10SM CLR 20/13 A2963 RMK AO2 SLP028 T02000133

Get Your Daily Forecast Email!

Thanks for signing up!

Be on the lookout for a verification email in your inbox.

You'll start receiving the daily forecast at 8 AM.

×

10-Day Weather Forecast

Almanac

Astronomy

Feb. 23, 2017 Rise Set
Actual Time
Civil Twilight
Nautical Twilight
Astronomical Twilight
Moon
Length of Visible Light
Length of Day
Tomorrow will be .
, % of the Moon is Illuminated

Today's Extremes

State Highs State Lows

Community

WunderPhotos

Upload Photos

1,962,540 photos uploaded!

WunderBlog® & News

Nearby

Air Quality

  Air Quality AQ Index Pollutant
Not available.

Snow Depth

Station Depth Elevation

Earthquake Activity

City Distance Mag. Time & Date
Minimum magnitude displayed is 2.5.

Coastal Water Temperatures

Place Temperature

Stations

Nearby Weather Stations

Station Location Temp. Windchill Dew Point Humidity Wind Precip. Elev Updated Type
                   

Watches & Warnings

Lake Wind Advisory
Issued: 3:41 PM CST Feb. 23, 2017 – National Weather Service

... Lake Wind Advisory in effect until 11 PM CST this evening...

* event... southerly winds 15 to 20 mph with gusts to 30 mph. These
strong winds will gradually diminish toward late evening.

* Timing... through 11 PM CST.

* Impact... winds will likely produce rough chop on area lakes
and waterways, which may be hazardous to boaters.

Precautionary/preparedness actions...

A lake Wind Advisory indicates that winds will cause rough chop
on area lakes. Small boats will be especially prone to capsizing.



06